Time;durP1;ratioP1;P1;durP2;ratioP2;P2;SDS_P1;SDS_P2;PMS_P1;PMS_P2;Temp;Humidity;BMP_temperature;BMP_pressure;BME280_temperature;BME280_humidity;BME280_pressure;Samples;Min_cycle;Max_cycle;Signal;HPM_P1;HPM_P2
2022/06/23 00:01:59;;;;;;;19.37;16.20;;;;;;;;;;5092688;28;20595;-74
2022/06/23 00:04:28;;;;;;;17.47;12.87;;;;;;;;;;5092536;28;20999;-74
2022/06/23 00:06:57;;;;;;;30.67;20.70;;;;;;;;;;5092658;28;20454;-74
2022/06/23 00:09:34;;;;;;;16.63;13.87;;;;;;;;;;5092543;28;20454;-74
2022/06/23 00:12:13;;;;;;;16.23;14.40;;;;;;;;;;5092529;28;20470;-74
2022/06/23 00:14:40;;;;;;;20.33;13.53;;;;;;;;;;5092599;28;20794;-74
2022/06/23 00:17:16;;;;;;;21.50;15.27;;;;;;;;;;5092604;28;20823;-74
2022/06/23 00:19:44;;;;;;;19.43;13.70;;;;;;;;;;5092687;28;20477;-74
2022/06/23 00:22:12;;;;;;;18.53;13.60;;;;;;;;;;5092359;28;20470;-74
2022/06/23 00:24:41;;;;;;;16.43;13.40;;;;;;;;;;5092165;28;20494;-74
2022/06/23 00:27:14;;;;;;;20.80;13.27;;;;;;;;;;5094064;28;20446;-74
2022/06/23 00:29:41;;;;;;;22.73;16.10;;;;;;;;;;5096398;28;20461;-74
2022/06/23 00:32:11;;;;;;;23.17;17.33;;;;;;;;;;5096015;28;20470;-74
2022/06/23 00:34:39;;;;;;;19.43;16.33;;;;;;;;;;5095851;28;20446;-74
2022/06/23 00:37:08;;;;;;;22.30;14.47;;;;;;;;;;5095920;28;20818;-75
2022/06/23 00:39:39;;;;;;;24.33;15.03;;;;;;;;;;5095850;28;20469;-75
2022/06/23 00:42:08;;;;;;;24.07;15.90;;;;;;;;;;5095683;28;20478;-75
2022/06/23 00:44:39;;;;;;;22.63;14.60;;;;;;;;;;5095472;28;20494;-74
2022/06/23 00:47:09;;;;;;;23.77;16.60;;;;;;;;;;5095841;28;20936;-74
2022/06/23 00:49:41;;;;;;;19.47;17.03;;;;;;;;;;5095928;28;20801;-74
2022/06/23 00:52:16;;;;;;;16.53;14.83;;;;;;;;;;5095012;28;20495;-74
2022/06/23 00:54:44;;;;;;;24.93;15.50;;;;;;;;;;5095673;28;20453;-74
2022/06/23 00:57:15;;;;;;;21.20;14.63;;;;;;;;;;5095678;28;20971;-74
2022/06/23 00:59:45;;;;;;;18.77;14.80;;;;;;;;;;5095715;28;20815;-74
2022/06/23 01:02:14;;;;;;;20.70;15.90;;;;;;;;;;5095486;28;20470;-74
2022/06/23 01:04:44;;;;;;;20.93;15.00;;;;;;;;;;5095315;28;20999;-74
2022/06/23 01:07:18;;;;;;;22.57;18.30;;;;;;;;;;5095476;28;20455;-74
2022/06/23 01:09:48;;;;;;;23.17;17.17;;;;;;;;;;5095473;28;20927;-74
2022/06/23 01:12:20;;;;;;;23.20;16.80;;;;;;;;;;5095310;28;20519;-74
2022/06/23 01:14:51;;;;;;;22.03;17.00;;;;;;;;;;5095267;28;20442;-74
2022/06/23 01:17:20;;;;;;;23.37;17.47;;;;;;;;;;5095155;28;20457;-74
2022/06/23 01:20:07;;;;;;;23.50;17.17;;;;;;;;;;5095155;28;20450;-74
2022/06/23 01:22:43;;;;;;;21.20;15.50;;;;;;;;;;5095211;28;20494;-74
2022/06/23 01:25:20;;;;;;;22.10;17.93;;;;;;;;;;5094780;28;20486;-74
2022/06/23 01:27:57;;;;;;;34.27;23.90;;;;;;;;;;5095070;28;20835;-74
2022/06/23 01:30:24;;;;;;;22.53;18.23;;;;;;;;;;5095073;28;20465;-74
2022/06/23 01:33:07;;;;;;;26.00;20.47;;;;;;;;;;5094990;28;20443;-74
2022/06/23 01:35:36;;;;;;;22.10;18.93;;;;;;;;;;5094832;28;20443;-75
2022/06/23 01:38:05;;;;;;;26.67;18.90;;;;;;;;;;5093770;28;20442;-75
2022/06/23 01:40:36;;;;;;;23.23;18.13;;;;;;;;;;5094827;28;20470;-75
2022/06/23 01:43:06;;;;;;;24.73;18.17;;;;;;;;;;5094812;28;20451;-75
2022/06/23 01:45:36;;;;;;;33.63;18.87;;;;;;;;;;5094745;28;20498;-75
2022/06/23 01:48:08;;;;;;;25.83;19.87;;;;;;;;;;5095002;28;20446;-75
2022/06/23 01:50:41;;;;;;;22.50;18.10;;;;;;;;;;5094580;28;20845;-75
2022/06/23 01:53:13;;;;;;;23.10;17.33;;;;;;;;;;5094320;28;20450;-75
2022/06/23 01:55:52;;;;;;;25.67;17.00;;;;;;;;;;5094433;28;20924;-75
2022/06/23 01:58:22;;;;;;;21.77;19.43;;;;;;;;;;5094492;28;20442;-75
2022/06/23 02:00:50;;;;;;;31.23;19.17;;;;;;;;;;5094339;28;20475;-75
2022/06/23 02:03:20;;;;;;;28.40;21.20;;;;;;;;;;5094366;28;20451;-75
2022/06/23 02:05:50;;;;;;;26.37;20.10;;;;;;;;;;5094148;28;20486;-75
2022/06/23 02:08:27;;;;;;;28.10;19.77;;;;;;;;;;5094355;28;20455;-75
2022/06/23 02:11:02;;;;;;;22.63;18.87;;;;;;;;;;5094376;28;20474;-75
2022/06/23 02:13:34;;;;;;;33.40;18.43;;;;;;;;;;5094114;28;20458;-75
2022/06/23 02:16:02;;;;;;;28.33;20.53;;;;;;;;;;5094147;28;20455;-75
2022/06/23 02:18:32;;;;;;;38.70;21.13;;;;;;;;;;5094045;28;20450;-75
2022/06/23 02:21:07;;;;;;;25.27;19.43;;;;;;;;;;5093913;28;20475;-75
2022/06/23 02:23:39;;;;;;;26.00;21.67;;;;;;;;;;5093887;28;20946;-75
2022/06/23 02:26:12;;;;;;;27.90;20.07;;;;;;;;;;5093891;28;20490;-75
2022/06/23 02:28:46;;;;;;;31.20;21.40;;;;;;;;;;5094142;28;20963;-75
2022/06/23 02:31:15;;;;;;;23.50;19.13;;;;;;;;;;5093805;28;20478;-75
2022/06/23 02:33:45;;;;;;;29.80;21.93;;;;;;;;;;5093650;28;20455;-75
2022/06/23 02:36:20;;;;;;;33.97;20.93;;;;;;;;;;5093725;28;20894;-75
2022/06/23 02:38:49;;;;;;;30.43;21.23;;;;;;;;;;5093846;28;20450;-75
2022/06/23 02:41:19;;;;;;;30.63;20.00;;;;;;;;;;5093498;28;20995;-75
2022/06/23 02:43:50;;;;;;;24.90;20.70;;;;;;;;;;5093066;28;20446;-75
2022/06/23 02:46:34;;;;;;;27.40;19.33;;;;;;;;;;5093511;28;20573;-75
2022/06/23 02:49:09;;;;;;;28.13;19.37;;;;;;;;;;5093410;28;20899;-75
2022/06/23 02:51:48;;;;;;;32.00;19.10;;;;;;;;;;5093673;28;20846;-75
2022/06/23 02:54:27;;;;;;;25.10;20.27;;;;;;;;;;5092934;28;20469;-75
2022/06/23 02:57:09;;;;;;;24.10;17.10;;;;;;;;;;5093571;28;20446;-75
2022/06/23 02:59:43;;;;;;;30.80;17.37;;;;;;;;;;5093595;28;20837;-75
2022/06/23 03:02:12;;;;;;;31.60;19.43;;;;;;;;;;5093214;28;20471;-75
2022/06/23 03:04:43;;;;;;;25.13;16.53;;;;;;;;;;5093106;28;20446;-75
2022/06/23 03:07:13;;;;;;;27.80;17.50;;;;;;;;;;5093384;28;20939;-75
2022/06/23 03:09:42;;;;;;;27.23;18.70;;;;;;;;;;5093507;28;20451;-75
2022/06/23 03:12:11;;;;;;;25.30;18.47;;;;;;;;;;5093099;28;20455;-75
2022/06/23 03:14:46;;;;;;;21.47;15.60;;;;;;;;;;5093130;28;20458;-75
2022/06/23 03:17:17;;;;;;;25.40;15.43;;;;;;;;;;5093216;28;20454;-75
2022/06/23 03:19:46;;;;;;;22.17;13.97;;;;;;;;;;5093390;28;20534;-75
2022/06/23 03:22:17;;;;;;;19.03;13.83;;;;;;;;;;5092963;28;20804;-75
2022/06/23 03:24:50;;;;;;;28.17;14.43;;;;;;;;;;5092947;28;20458;-76
2022/06/23 03:27:22;;;;;;;16.40;10.50;;;;;;;;;;5093128;28;20973;-75
2022/06/23 03:29:53;;;;;;;16.97;10.93;;;;;;;;;;5093440;28;20500;-75
2022/06/23 03:32:21;;;;;;;29.17;10.80;;;;;;;;;;5092864;28;20504;-75
2022/06/23 03:34:49;;;;;;;12.30;10.30;;;;;;;;;;5092765;28;20443;-75
2022/06/23 03:37:18;;;;;;;19.07;9.10;;;;;;;;;;5093022;28;20447;-75
2022/06/23 03:42:33;;;;;;;18.73;11.10;;;;;;;;;;5093247;28;20445;-75
2022/06/23 03:45:14;;;;;;;30.00;10.43;;;;;;;;;;5092718;28;20990;-75
2022/06/23 03:47:45;;;;;;;22.63;10.87;;;;;;;;;;5092999;28;20963;-76
2022/06/23 03:50:19;;;;;;;20.73;10.03;;;;;;;;;;5092864;28;20451;-76
2022/06/23 03:52:48;;;;;;;15.33;11.50;;;;;;;;;;5092518;28;20458;-76
2022/06/23 03:55:18;;;;;;;18.27;10.83;;;;;;;;;;5092505;28;20451;-76
2022/06/23 03:57:47;;;;;;;22.70;11.23;;;;;;;;;;5092791;28;20451;-75
2022/06/23 04:00:23;;;;;;;17.00;10.97;;;;;;;;;;5092656;28;20446;-75
2022/06/23 04:02:54;;;;;;;20.00;11.30;;;;;;;;;;5095705;28;20453;-75
2022/06/23 04:05:23;;;;;;;13.97;10.53;;;;;;;;;;5096333;28;20848;-75
2022/06/23 04:07:53;;;;;;;13.20;10.00;;;;;;;;;;5096805;28;20447;-75
2022/06/23 04:10:23;;;;;;;15.63;10.30;;;;;;;;;;5096348;28;20454;-75
2022/06/23 04:12:53;;;;;;;18.97;10.43;;;;;;;;;;5096659;28;20462;-75
2022/06/23 04:15:25;;;;;;;18.73;10.37;;;;;;;;;;5096190;28;20797;-75
2022/06/23 04:17:55;;;;;;;14.03;10.40;;;;;;;;;;5096435;28;20457;-75
2022/06/23 04:20:23;;;;;;;21.80;10.40;;;;;;;;;;5096316;28;20450;-75
2022/06/23 04:22:53;;;;;;;20.33;10.90;;;;;;;;;;5096461;28;20455;-75
2022/06/23 04:25:22;;;;;;;13.80;8.70;;;;;;;;;;5095822;28;20493;-75
2022/06/23 04:27:51;;;;;;;14.87;9.50;;;;;;;;;;5096552;28;20819;-74
2022/06/23 04:30:27;;;;;;;12.17;8.23;;;;;;;;;;5096026;28;20459;-74
2022/06/23 04:32:56;;;;;;;13.10;8.20;;;;;;;;;;5096252;28;20822;-74
2022/06/23 04:35:27;;;;;;;16.00;9.30;;;;;;;;;;5095813;28;20453;-74
2022/06/23 04:37:58;;;;;;;13.90;8.00;;;;;;;;;;5096252;28;20868;-74
2022/06/23 04:40:27;;;;;;;14.93;8.30;;;;;;;;;;5095964;28;20465;-74
2022/06/23 04:42:57;;;;;;;12.93;7.93;;;;;;;;;;5096082;28;20443;-74
2022/06/23 04:45:42;;;;;;;11.60;8.37;;;;;;;;;;5095546;28;20543;-74
2022/06/23 04:48:15;;;;;;;13.90;7.03;;;;;;;;;;5095862;28;20455;-74
2022/06/23 04:50:44;;;;;;;16.30;8.60;;;;;;;;;;5095802;28;20480;-74
2022/06/23 04:53:18;;;;;;;11.07;7.47;;;;;;;;;;5095418;28;20446;-74
2022/06/23 04:56:01;;;;;;;14.37;8.63;;;;;;;;;;5095770;28;20442;-74
2022/06/23 04:58:28;;;;;;;13.60;7.40;;;;;;;;;;5095654;28;20557;-74
2022/06/23 05:00:57;;;;;;;14.03;7.60;;;;;;;;;;5095568;28;20486;-74
2022/06/23 05:03:27;;;;;;;12.80;7.40;;;;;;;;;;5095493;28;20958;-74
2022/06/23 05:05:56;;;;;;;13.57;7.90;;;;;;;;;;5095546;28;20849;-74
2022/06/23 05:08:26;;;;;;;12.37;8.90;;;;;;;;;;5095259;28;20469;-74
2022/06/23 05:10:55;;;;;;;19.60;7.60;;;;;;;;;;5095559;28;21050;-75
2022/06/23 05:13:25;;;;;;;10.07;6.67;;;;;;;;;;5095143;28;20458;-74
2022/06/23 05:15:57;;;;;;;19.87;6.90;;;;;;;;;;5095165;28;20451;-74
2022/06/23 05:18:28;;;;;;;18.70;7.93;;;;;;;;;;5095221;28;20936;-74
2022/06/23 05:20:58;;;;;;;18.33;7.47;;;;;;;;;;5095111;28;20470;-74
2022/06/23 05:23:28;;;;;;;14.60;6.20;;;;;;;;;;5094865;28;20443;-74
2022/06/23 05:25:56;;;;;;;10.60;6.47;;;;;;;;;;5095220;28;20482;-74
2022/06/23 05:28:25;;;;;;;12.57;6.93;;;;;;;;;;5094980;28;20447;-74
2022/06/23 05:30:54;;;;;;;16.57;8.40;;;;;;;;;;5095041;28;20475;-74
2022/06/23 05:33:22;;;;;;;21.03;7.13;;;;;;;;;;5094965;28;20455;-74
2022/06/23 05:35:52;;;;;;;12.70;7.03;;;;;;;;;;5094874;28;20949;-75
2022/06/23 05:38:30;;;;;;;9.40;6.90;;;;;;;;;;5094789;28;20451;-75
2022/06/23 05:40:58;;;;;;;9.93;7.00;;;;;;;;;;5095209;28;21114;-75
2022/06/23 05:43:26;;;;;;;11.73;6.37;;;;;;;;;;5094817;28;20458;-74
2022/06/23 05:45:54;;;;;;;13.43;7.07;;;;;;;;;;5094681;28;20486;-74
2022/06/23 05:48:23;;;;;;;14.60;7.67;;;;;;;;;;5094552;28;20451;-74
2022/06/23 05:50:52;;;;;;;17.47;8.10;;;;;;;;;;5094681;28;20475;-74
2022/06/23 05:53:22;;;;;;;13.67;7.50;;;;;;;;;;5094101;28;20450;-74
2022/06/23 05:55:52;;;;;;;12.17;8.27;;;;;;;;;;5094408;28;20458;-74
2022/06/23 05:58:22;;;;;;;10.20;7.20;;;;;;;;;;5094408;28;20936;-74
2022/06/23 06:00:51;;;;;;;10.10;6.47;;;;;;;;;;5094571;28;20478;-74
2022/06/23 06:03:22;;;;;;;7.80;5.90;;;;;;;;;;5094394;28;20459;-74
2022/06/23 06:05:51;;;;;;;7.67;6.90;;;;;;;;;;5094068;28;20483;-74
2022/06/23 06:08:22;;;;;;;11.97;6.20;;;;;;;;;;5094133;28;20458;-74
2022/06/23 06:10:50;;;;;;;10.47;6.27;;;;;;;;;;5094429;28;20477;-74
2022/06/23 06:13:19;;;;;;;12.10;6.37;;;;;;;;;;5094199;28;20461;-74
2022/06/23 06:15:48;;;;;;;9.57;5.97;;;;;;;;;;5094142;28;20458;-74
2022/06/23 06:18:19;;;;;;;7.57;5.80;;;;;;;;;;5094031;28;20963;-74
2022/06/23 06:20:46;;;;;;;13.20;5.60;;;;;;;;;;5094141;28;20474;-74
2022/06/23 06:23:15;;;;;;;13.97;6.40;;;;;;;;;;5093931;28;20458;-74
2022/06/23 06:25:47;;;;;;;9.33;5.70;;;;;;;;;;5093164;28;20447;-74
2022/06/23 06:28:17;;;;;;;8.80;5.63;;;;;;;;;;5093025;28;20471;-74
2022/06/23 06:30:47;;;;;;;7.90;6.23;;;;;;;;;;5090906;28;20523;-74
2022/06/23 06:33:26;;;;;;;14.90;6.53;;;;;;;;;;5093774;28;20962;-74
2022/06/23 06:35:54;;;;;;;9.97;5.70;;;;;;;;;;5093783;28;20485;-74
2022/06/23 06:38:22;;;;;;;9.83;5.70;;;;;;;;;;5093610;28;20470;-74
2022/06/23 06:40:54;;;;;;;10.00;6.30;;;;;;;;;;5093743;28;20826;-73
2022/06/23 06:43:23;;;;;;;9.07;5.40;;;;;;;;;;5093492;28;20958;-74
2022/06/23 06:45:50;;;;;;;12.60;5.67;;;;;;;;;;5093523;28;20506;-74
2022/06/23 06:48:21;;;;;;;7.03;5.93;;;;;;;;;;5093528;28;20447;-74
2022/06/23 06:50:49;;;;;;;10.23;5.23;;;;;;;;;;5093657;28;20477;-74
2022/06/23 06:53:19;;;;;;;9.70;6.13;;;;;;;;;;5093120;28;20466;-74
2022/06/23 06:55:49;;;;;;;10.50;5.60;;;;;;;;;;5093384;28;20455;-74
2022/06/23 06:58:20;;;;;;;8.70;5.60;;;;;;;;;;5093541;28;20808;-74
2022/06/23 07:00:51;;;;;;;9.43;6.13;;;;;;;;;;5093409;28;20493;-74
2022/06/23 07:03:21;;;;;;;9.70;5.83;;;;;;;;;;5093343;28;20454;-74
2022/06/23 07:05:50;;;;;;;9.77;6.30;;;;;;;;;;5093285;28;20481;-74
2022/06/23 07:08:21;;;;;;;11.73;6.53;;;;;;;;;;5093199;28;20944;-73
2022/06/23 07:10:50;;;;;;;8.87;6.37;;;;;;;;;;5093366;28;20470;-73
2022/06/23 07:13:22;;;;;;;11.10;6.70;;;;;;;;;;5093164;28;20454;-74
2022/06/23 07:15:52;;;;;;;10.23;6.33;;;;;;;;;;5093211;28;20447;-74
2022/06/23 07:18:23;;;;;;;9.87;6.00;;;;;;;;;;5093552;28;20446;-74
2022/06/23 07:20:54;;;;;;;10.33;5.30;;;;;;;;;;5093348;28;20474;-74
2022/06/23 07:23:23;;;;;;;8.50;5.70;;;;;;;;;;5093091;28;20978;-74
2022/06/23 07:25:52;;;;;;;11.93;5.83;;;;;;;;;;5092877;28;20461;-74
2022/06/23 07:28:24;;;;;;;7.33;5.23;;;;;;;;;;5093155;28;20447;-74
2022/06/23 07:30:54;;;;;;;9.27;4.77;;;;;;;;;;5093222;28;20511;-74
2022/06/23 07:33:24;;;;;;;15.70;5.70;;;;;;;;;;5092979;28;20458;-74
2022/06/23 07:35:55;;;;;;;8.53;4.70;;;;;;;;;;5092943;28;20792;-74
2022/06/23 07:38:24;;;;;;;7.73;4.73;;;;;;;;;;5096763;28;20450;-74
2022/06/23 07:40:55;;;;;;;5.80;5.17;;;;;;;;;;5097199;28;20836;-74
2022/06/23 07:43:26;;;;;;;8.73;5.20;;;;;;;;;;5097174;28;20451;-74
2022/06/23 07:45:55;;;;;;;8.77;5.83;;;;;;;;;;5097170;28;20449;-74
2022/06/23 07:48:22;;;;;;;12.33;5.87;;;;;;;;;;5096846;28;20461;-74
2022/06/23 07:50:50;;;;;;;6.97;6.00;;;;;;;;;;5097043;28;20539;-74
2022/06/23 07:53:19;;;;;;;11.83;6.60;;;;;;;;;;5096277;28;20446;-74
2022/06/23 07:55:47;;;;;;;10.30;5.50;;;;;;;;;;5096852;28;20932;-74
2022/06/23 07:58:14;;;;;;;18.33;5.73;;;;;;;;;;5096761;28;20442;-74
2022/06/23 08:00:44;;;;;;;8.37;4.83;;;;;;;;;;5096788;28;20831;-74
2022/06/23 08:03:13;;;;;;;11.70;6.07;;;;;;;;;;5097204;28;20438;-74
2022/06/23 08:05:43;;;;;;;12.00;6.67;;;;;;;;;;5096487;28;20801;-74
2022/06/23 08:08:13;;;;;;;10.37;5.83;;;;;;;;;;5096527;28;20490;-74
2022/06/23 08:10:41;;;;;;;9.80;5.03;;;;;;;;;;5096574;28;20523;-74
2022/06/23 08:13:09;;;;;;;8.07;5.93;;;;;;;;;;5096683;28;20528;-74
2022/06/23 08:18:32;;;;;;;10.90;4.80;;;;;;;;;;5096346;28;21058;-72
2022/06/23 08:21:03;;;;;;;6.50;4.33;;;;;;;;;;5096355;28;20474;-73
2022/06/23 08:23:32;;;;;;;10.27;5.10;;;;;;;;;;5096353;28;20442;-73
2022/06/23 08:26:00;;;;;;;7.60;5.17;;;;;;;;;;5096298;28;20450;-73
2022/06/23 08:28:27;;;;;;;11.30;4.20;;;;;;;;;;5089936;28;20491;-73
2022/06/23 08:30:55;;;;;;;11.87;5.93;;;;;;;;;;5076110;28;20475;-73
2022/06/23 08:33:22;;;;;;;11.20;4.63;;;;;;;;;;5095437;28;20462;-73
2022/06/23 08:35:52;;;;;;;12.23;4.50;;;;;;;;;;5095971;28;20457;-73
2022/06/23 08:38:21;;;;;;;8.67;4.93;;;;;;;;;;5095960;28;20460;-73
2022/06/23 08:41:06;;;;;;;10.97;4.13;;;;;;;;;;5095794;28;20506;-73
2022/06/23 08:43:37;;;;;;;8.97;3.90;;;;;;;;;;5095840;28;20446;-73
2022/06/23 08:46:07;;;;;;;9.63;4.20;;;;;;;;;;5095964;28;20544;-73
2022/06/23 08:48:39;;;;;;;10.33;5.03;;;;;;;;;;5095035;28;20492;-73
2022/06/23 08:51:12;;;;;;;5.97;3.40;;;;;;;;;;5095917;28;20951;-73
2022/06/23 08:53:44;;;;;;;13.80;3.23;;;;;;;;;;5095269;28;20446;-72
2022/06/23 08:56:14;;;;;;;8.50;4.80;;;;;;;;;;5095626;28;20449;-72
2022/06/23 08:58:42;;;;;;;9.33;4.67;;;;;;;;;;5095671;28;20426;-73
2022/06/23 09:01:12;;;;;;;10.17;4.33;;;;;;;;;;5095296;28;20833;-74
2022/06/23 09:03:42;;;;;;;10.40;4.00;;;;;;;;;;5095329;28;20446;-73
2022/06/23 09:06:17;;;;;;;6.50;3.73;;;;;;;;;;5095171;28;20458;-73
2022/06/23 09:08:47;;;;;;;10.53;3.47;;;;;;;;;;5086446;28;20487;-73
2022/06/23 09:11:19;;;;;;;4.33;3.17;;;;;;;;;;5075849;28;20994;-73
2022/06/23 09:13:55;;;;;;;9.03;3.23;;;;;;;;;;5094005;28;20451;-73
2022/06/23 09:16:30;;;;;;;8.93;3.97;;;;;;;;;;5093623;28;20457;-74
2022/06/23 09:19:03;;;;;;;10.90;3.67;;;;;;;;;;5093868;28;20944;-74
2022/06/23 09:21:41;;;;;;;10.43;3.67;;;;;;;;;;5093197;28;20477;-73
2022/06/23 09:24:23;;;;;;;8.60;3.77;;;;;;;;;;5072620;28;20971;-74
2022/06/23 09:26:53;;;;;;;7.63;3.20;;;;;;;;;;5073122;28;20492;-74
2022/06/23 09:29:24;;;;;;;7.17;3.50;;;;;;;;;;5082545;28;20937;-74
2022/06/23 09:31:58;;;;;;;12.53;3.50;;;;;;;;;;5079817;28;20476;-74
2022/06/23 09:34:32;;;;;;;13.83;3.77;;;;;;;;;;5073080;28;20818;-73
2022/06/23 09:37:22;;;;;;;10.57;3.90;;;;;;;;;;5073582;28;20447;-73
2022/06/23 09:40:13;;;;;;;16.67;4.17;;;;;;;;;;5078120;28;20936;-73
2022/06/23 09:42:53;;;;;;;7.87;3.40;;;;;;;;;;5073348;28;20788;-73
2022/06/23 09:45:29;;;;;;;10.57;3.30;;;;;;;;;;5072548;28;20452;-73
2022/06/23 09:48:06;;;;;;;10.90;3.67;;;;;;;;;;5081338;28;20831;-73
2022/06/23 09:50:42;;;;;;;5.40;2.83;;;;;;;;;;5073008;28;20475;-74
2022/06/23 09:53:18;;;;;;;18.43;5.87;;;;;;;;;;5072542;28;20971;-73
2022/06/23 09:55:55;;;;;;;6.50;3.07;;;;;;;;;;5081091;28;20451;-74
2022/06/23 09:58:34;;;;;;;7.33;3.37;;;;;;;;;;5092499;28;20824;-74
2022/06/23 10:01:10;;;;;;;11.20;3.73;;;;;;;;;;5092463;28;20528;-74
2022/06/23 10:03:50;;;;;;;15.20;4.13;;;;;;;;;;5093242;28;20446;-74
2022/06/23 10:06:32;;;;;;;6.97;3.33;;;;;;;;;;5092998;28;20814;-74
2022/06/23 10:09:06;;;;;;;6.47;3.40;;;;;;;;;;5093008;28;20704;-74
2022/06/23 10:11:51;;;;;;;9.63;3.60;;;;;;;;;;5092640;28;20480;-74
2022/06/23 10:14:26;;;;;;;12.33;3.77;;;;;;;;;;5092578;28;20442;-74
2022/06/23 10:17:19;;;;;;;4.93;3.17;;;;;;;;;;5092934;28;20457;-74
2022/06/23 10:20:01;;;;;;;6.50;3.70;;;;;;;;;;5092814;28;20503;-73
2022/06/23 10:22:34;;;;;;;10.57;3.00;;;;;;;;;;5090400;28;20935;-74
2022/06/23 10:25:12;;;;;;;9.03;2.90;;;;;;;;;;5092372;28;20458;-73
2022/06/23 10:27:48;;;;;;;7.70;3.10;;;;;;;;;;5092882;28;20498;-73
2022/06/23 10:30:19;;;;;;;6.63;2.80;;;;;;;;;;5092376;28;20454;-74
2022/06/23 10:33:01;;;;;;;3.83;2.90;;;;;;;;;;5092615;28;20490;-73
2022/06/23 10:35:41;;;;;;;7.30;2.50;;;;;;;;;;5079687;28;20497;-73
2022/06/23 10:38:21;;;;;;;13.60;5.80;;;;;;;;;;5092466;28;20442;-73
2022/06/23 10:40:58;;;;;;;6.40;2.83;;;;;;;;;;5092210;28;20504;-73
2022/06/23 10:43:46;;;;;;;6.10;3.00;;;;;;;;;;5092300;28;20997;-74
2022/06/23 10:46:14;;;;;;;10.43;3.97;;;;;;;;;;5088239;28;20463;-73
2022/06/23 10:48:56;;;;;;;8.23;2.53;;;;;;;;;;5093530;28;21014;-74
2022/06/23 10:51:35;;;;;;;12.27;3.57;;;;;;;;;;5092905;28;20482;-73
2022/06/23 10:54:12;;;;;;;8.80;2.73;;;;;;;;;;5093115;28;20821;-74
2022/06/23 10:56:54;;;;;;;7.63;2.70;;;;;;;;;;5093477;28;20468;-74
2022/06/23 10:59:31;;;;;;;12.80;3.50;;;;;;;;;;5091332;28;20466;-74
2022/06/23 11:02:07;;;;;;;7.63;2.73;;;;;;;;;;5093572;28;20470;-74
2022/06/23 11:04:47;;;;;;;12.03;2.80;;;;;;;;;;5093337;28;20442;-73
2022/06/23 11:07:36;;;;;;;4.27;2.90;;;;;;;;;;5093340;28;20812;-73
2022/06/23 11:10:24;;;;;;;7.30;4.10;;;;;;;;;;5093195;28;20511;-74
2022/06/23 11:12:56;;;;;;;12.50;3.47;;;;;;;;;;5070006;28;20452;-74
2022/06/23 11:15:28;;;;;;;6.90;4.30;;;;;;;;;;5071613;28;20448;-74
2022/06/23 11:18:02;;;;;;;9.70;2.77;;;;;;;;;;5071902;28;20459;-73
2022/06/23 11:20:35;;;;;;;4.97;2.97;;;;;;;;;;5071851;28;20975;-74
2022/06/23 11:23:08;;;;;;;9.00;3.13;;;;;;;;;;5071785;28;20452;-75
2022/06/23 11:25:44;;;;;;;6.10;2.50;;;;;;;;;;5071686;28;20468;-75
2022/06/23 11:28:16;;;;;;;4.60;2.53;;;;;;;;;;5071736;28;20980;-74
2022/06/23 11:30:52;;;;;;;10.00;3.13;;;;;;;;;;5071636;28;20475;-74
2022/06/23 11:33:30;;;;;;;5.97;2.70;;;;;;;;;;5071485;28;20523;-74
2022/06/23 11:36:03;;;;;;;10.73;3.30;;;;;;;;;;5071551;28;20436;-73
2022/06/23 11:38:42;;;;;;;4.93;3.10;;;;;;;;;;5071757;28;20491;-73
2022/06/23 11:41:17;;;;;;;7.00;2.70;;;;;;;;;;5071283;28;20908;-73
2022/06/23 11:43:51;;;;;;;8.40;3.30;;;;;;;;;;5071432;28;20462;-73
2022/06/23 11:46:25;;;;;;;9.60;3.10;;;;;;;;;;5071381;28;20789;-74
2022/06/23 11:49:00;;;;;;;7.50;2.93;;;;;;;;;;5071325;28;20566;-73
2022/06/23 11:51:38;;;;;;;7.20;3.10;;;;;;;;;;5071235;28;20487;-73
2022/06/23 11:54:15;;;;;;;8.40;3.77;;;;;;;;;;5071179;28;20854;-74
2022/06/23 11:56:49;;;;;;;10.77;3.70;;;;;;;;;;5071614;28;20858;-73
2022/06/23 11:59:34;;;;;;;6.97;3.73;;;;;;;;;;5071575;28;20448;-73
2022/06/23 12:02:02;;;;;;;7.13;3.80;;;;;;;;;;5071082;28;20468;-73
2022/06/23 12:04:38;;;;;;;9.50;3.10;;;;;;;;;;5071214;28;20819;-73
2022/06/23 12:07:14;;;;;;;6.60;3.67;;;;;;;;;;5071083;28;20444;-73
2022/06/23 12:09:46;;;;;;;9.77;3.33;;;;;;;;;;5071261;28;20452;-73
2022/06/23 12:12:13;;;;;;;8.60;4.10;;;;;;;;;;5071053;28;20478;-73
2022/06/23 12:14:41;;;;;;;12.00;3.97;;;;;;;;;;5070999;28;20451;-73
2022/06/23 12:17:13;;;;;;;9.17;3.80;;;;;;;;;;5071394;28;20459;-73
2022/06/23 12:19:44;;;;;;;12.20;4.37;;;;;;;;;;5072829;28;20424;-78
2022/06/23 12:22:15;;;;;;;10.00;4.10;;;;;;;;;;5074442;28;20468;-77
2022/06/23 12:24:44;;;;;;;14.33;5.50;;;;;;;;;;5077165;28;20978;-77
2022/06/23 12:27:16;;;;;;;8.67;3.63;;;;;;;;;;5076692;28;20447;-75
2022/06/23 12:29:46;;;;;;;8.00;4.70;;;;;;;;;;5081105;28;21007;-74
2022/06/23 12:32:17;;;;;;;10.20;4.40;;;;;;;;;;5094711;28;20475;-74
2022/06/23 12:34:46;;;;;;;8.30;4.00;;;;;;;;;;5094780;28;20446;-74
2022/06/23 12:37:17;;;;;;;9.50;4.53;;;;;;;;;;5094837;28;20450;-74
2022/06/23 12:39:48;;;;;;;6.07;4.23;;;;;;;;;;5095142;28;20896;-74
2022/06/23 12:42:19;;;;;;;11.13;4.07;;;;;;;;;;5094602;28;20855;-74
2022/06/23 12:44:53;;;;;;;7.73;4.37;;;;;;;;;;5095021;28;20442;-74
2022/06/23 12:47:29;;;;;;;9.63;4.50;;;;;;;;;;5094899;28;20441;-74
2022/06/23 12:50:11;;;;;;;5.53;3.70;;;;;;;;;;5095051;28;20431;-74
2022/06/23 12:52:43;;;;;;;6.03;4.73;;;;;;;;;;5092432;28;20466;-73
2022/06/23 12:55:28;;;;;;;11.27;3.43;;;;;;;;;;5094459;28;20446;-74
2022/06/23 12:58:03;;;;;;;6.93;4.10;;;;;;;;;;5094588;28;20435;-74
2022/06/23 13:00:42;;;;;;;9.27;4.53;;;;;;;;;;5094376;28;21005;-74
2022/06/23 13:03:15;;;;;;;7.30;3.30;;;;;;;;;;5094572;28;20896;-73
2022/06/23 13:05:47;;;;;;;8.20;3.63;;;;;;;;;;5094274;28;20439;-74
2022/06/23 13:08:21;;;;;;;13.60;8.47;;;;;;;;;;5094537;28;20470;-74
2022/06/23 13:10:50;;;;;;;8.57;3.93;;;;;;;;;;5094291;28;20466;-74
2022/06/23 13:13:20;;;;;;;11.57;3.60;;;;;;;;;;5094419;28;20928;-74
2022/06/23 13:15:50;;;;;;;10.00;3.60;;;;;;;;;;5094351;28;20451;-74
2022/06/23 13:18:23;;;;;;;11.80;4.30;;;;;;;;;;5094358;28;20643;-74
2022/06/23 13:20:52;;;;;;;12.47;4.10;;;;;;;;;;5094369;28;20470;-74
2022/06/23 13:23:20;;;;;;;8.33;3.90;;;;;;;;;;5093809;28;20451;-73
2022/06/23 13:25:51;;;;;;;8.87;3.20;;;;;;;;;;5093909;28;20450;-73
2022/06/23 13:28:27;;;;;;;6.80;3.40;;;;;;;;;;5094085;28;20506;-74
2022/06/23 13:30:56;;;;;;;6.20;3.40;;;;;;;;;;5094198;28;20470;-73
2022/06/23 13:33:29;;;;;;;7.93;3.27;;;;;;;;;;5093597;28;20482;-73
2022/06/23 13:36:01;;;;;;;8.07;3.57;;;;;;;;;;5093705;28;20435;-73
2022/06/23 13:38:37;;;;;;;5.97;2.93;;;;;;;;;;5093945;28;20451;-74
2022/06/23 13:41:08;;;;;;;5.00;2.83;;;;;;;;;;5094094;28;20995;-74
2022/06/23 13:43:37;;;;;;;8.43;2.60;;;;;;;;;;5093383;28;20530;-73
2022/06/23 13:46:06;;;;;;;6.47;2.90;;;;;;;;;;5093510;28;20951;-73
2022/06/23 13:48:38;;;;;;;8.40;3.37;;;;;;;;;;5093564;28;20491;-74
2022/06/23 13:51:07;;;;;;;14.00;3.67;;;;;;;;;;5093418;28;20831;-73
2022/06/23 13:53:38;;;;;;;8.70;3.30;;;;;;;;;;5093100;28;20936;-73
2022/06/23 13:56:08;;;;;;;4.43;2.50;;;;;;;;;;5093042;28;20439;-73
2022/06/23 13:58:38;;;;;;;7.43;3.30;;;;;;;;;;5093452;28;20460;-73
2022/06/23 14:01:17;;;;;;;4.90;2.73;;;;;;;;;;5093633;28;20482;-73
2022/06/23 14:03:53;;;;;;;5.70;2.77;;;;;;;;;;5093261;28;20453;-73
2022/06/23 14:06:23;;;;;;;8.73;2.23;;;;;;;;;;5093361;28;20912;-73
2022/06/23 14:08:53;;;;;;;10.87;3.23;;;;;;;;;;5094010;28;20487;-73
2022/06/23 14:11:24;;;;;;;5.83;2.93;;;;;;;;;;5093841;28;20477;-74
2022/06/23 14:13:54;;;;;;;7.83;3.40;;;;;;;;;;5094354;28;20454;-73
2022/06/23 14:16:24;;;;;;;6.97;2.70;;;;;;;;;;5094328;28;20459;-74
2022/06/23 14:18:56;;;;;;;6.17;3.60;;;;;;;;;;5094181;28;20546;-73
2022/06/23 14:21:27;;;;;;;5.40;2.23;;;;;;;;;;5094214;28;20840;-74
2022/06/23 14:24:00;;;;;;;7.83;2.83;;;;;;;;;;5094008;28;20468;-74
2022/06/23 14:26:30;;;;;;;8.70;2.70;;;;;;;;;;5094124;28;20484;-74
2022/06/23 14:29:01;;;;;;;7.03;3.33;;;;;;;;;;5094201;28;20486;-74
2022/06/23 14:31:31;;;;;;;8.20;2.80;;;;;;;;;;5093807;28;20511;-74
2022/06/23 14:34:05;;;;;;;7.10;2.87;;;;;;;;;;5093876;28;20549;-73
2022/06/23 14:36:35;;;;;;;7.00;2.67;;;;;;;;;;5094087;28;20435;-74
2022/06/23 14:39:07;;;;;;;7.83;3.37;;;;;;;;;;5093643;28;20451;-74
2022/06/23 14:41:49;;;;;;;7.17;3.47;;;;;;;;;;5093997;28;20471;-74
2022/06/23 14:44:26;;;;;;;4.77;2.77;;;;;;;;;;5091451;28;20458;-74
2022/06/23 14:46:55;;;;;;;9.60;3.20;;;;;;;;;;5093546;28;20434;-74
2022/06/23 14:49:43;;;;;;;6.50;3.60;;;;;;;;;;5093453;28;20501;-74
2022/06/23 14:52:15;;;;;;;5.20;2.30;;;;;;;;;;5067813;28;20471;-74
2022/06/23 14:54:45;;;;;;;7.10;4.03;;;;;;;;;;5093480;28;20431;-74
2022/06/23 14:57:20;;;;;;;5.10;2.83;;;;;;;;;;5093642;28;20811;-74
2022/06/23 14:59:50;;;;;;;6.73;3.03;;;;;;;;;;5093543;28;20905;-74
2022/06/23 15:02:25;;;;;;;10.10;2.77;;;;;;;;;;5093559;28;20467;-74
2022/06/23 15:04:55;;;;;;;4.40;3.07;;;;;;;;;;5093349;28;20450;-74
2022/06/23 15:07:27;;;;;;;5.67;2.83;;;;;;;;;;5093722;28;20453;-74